Wilkesville, Ohio
Current Conditions -  °F | °C
As of 11:55 AM on Monday 22 Dec 2014 (Local Time) from KUNI Reporting Station
Overcast Overcast  
Wind Chill: 44°   Ceiling: 6000
Heat Index: 44°   Visibility: 10mi
Dew Point: 33°   Wind: 0mph
Humidity: 66%   Direction: NA
Pressure: 30.01"   Gusts: NA
Location:  39.07°N, 82.33°W
Report Text: KUNI 221655Z AUTO 00000KT 10SM OVC060 07/01 A3001 RMK AO2 T00680008
Loading
Personal Weather Stations






























Interactive Weather Map New forecast layout! Learn more

10-Day Weather Forecast

Advertisements
Track Severe Weather on mobile